createdAt,value
2019-03-12T00:02:22.660Z,51.10
2019-03-12T00:05:17.849Z,51.10
2019-03-12T00:08:12.907Z,51.10
2019-03-12T00:11:08.131Z,51.00
2019-03-12T00:14:02.995Z,51.10
2019-03-12T00:17:00.014Z,50.90
2019-03-12T00:19:55.100Z,50.70
2019-03-12T00:22:51.406Z,50.50
2019-03-12T00:25:46.017Z,50.50
2019-03-12T00:28:41.701Z,50.50
2019-03-12T00:31:36.640Z,50.70
2019-03-12T00:34:31.603Z,50.70
2019-03-12T00:37:26.424Z,50.90
2019-03-12T00:40:21.120Z,51.00
2019-03-12T00:43:16.317Z,51.10
2019-03-12T00:46:11.686Z,51.20
2019-03-12T00:49:06.138Z,51.20
2019-03-12T00:52:01.126Z,51.10
2019-03-12T00:54:55.975Z,51.10
2019-03-12T00:57:51.055Z,50.90
2019-03-12T01:00:46.026Z,50.90
2019-03-12T01:03:41.052Z,51.00
2019-03-12T01:06:35.950Z,51.20
2019-03-12T01:09:30.555Z,51.20
2019-03-12T01:12:25.567Z,51.30
2019-03-12T01:15:20.727Z,51.30
2019-03-12T01:18:15.953Z,51.30
2019-03-12T01:21:10.559Z,51.30
2019-03-12T01:24:05.674Z,51.40
2019-03-12T01:27:01.101Z,51.50
2019-03-12T01:29:55.922Z,51.40
2019-03-12T01:32:51.220Z,51.50
2019-03-12T01:35:46.151Z,51.50
2019-03-12T01:38:41.226Z,51.70
2019-03-12T01:41:36.715Z,51.80
2019-03-12T01:44:33.115Z,52.00
2019-03-12T01:47:28.340Z,52.10
2019-03-12T01:50:23.148Z,52.20
2019-03-12T01:53:18.475Z,52.40
2019-03-12T01:56:14.030Z,52.50
2019-03-12T01:59:09.173Z,52.60
2019-03-12T02:02:04.447Z,52.70
2019-03-12T02:04:59.453Z,52.70
2019-03-12T02:07:54.806Z,52.70
2019-03-12T02:10:51.619Z,52.70
2019-03-12T02:13:46.661Z,52.70
2019-03-12T02:16:44.398Z,52.70
2019-03-12T02:19:39.423Z,52.60
2019-03-12T02:22:35.654Z,52.40
2019-03-12T02:25:30.585Z,52.30
2019-03-12T02:28:25.961Z,52.60
2019-03-12T02:31:21.035Z,52.60
2019-03-12T02:34:16.099Z,52.50
2019-03-12T02:37:11.600Z,52.50
2019-03-12T02:40:06.530Z,52.50
2019-03-12T02:43:01.275Z,52.60
2019-03-12T02:45:56.457Z,52.50
2019-03-12T02:48:51.482Z,52.50
2019-03-12T02:51:46.365Z,52.50
2019-03-12T02:54:40.994Z,52.70
2019-03-12T02:57:36.063Z,53.00
2019-03-12T03:00:31.214Z,53.40
2019-03-12T03:03:26.227Z,53.50
2019-03-12T03:06:44.948Z,53.60
2019-03-12T03:09:39.629Z,53.70
2019-03-12T03:12:35.246Z,54.00
2019-03-12T03:15:32.926Z,54.20
2019-03-12T03:18:28.257Z,54.40
2019-03-12T03:21:23.532Z,54.30
2019-03-12T03:24:18.431Z,54.20
2019-03-12T03:27:13.569Z,54.20
2019-03-12T03:30:09.874Z,54.40
2019-03-12T03:33:05.065Z,54.40
2019-03-12T03:36:00.102Z,54.20
2019-03-12T03:38:55.093Z,54.40
2019-03-12T03:41:51.336Z,54.40
2019-03-12T03:44:46.542Z,54.10
2019-03-12T03:47:41.361Z,54.00
2019-03-12T03:50:36.348Z,53.70
2019-03-12T03:53:31.367Z,53.50
2019-03-12T03:56:27.224Z,53.50
2019-03-12T03:59:22.281Z,53.20
2019-03-12T04:02:17.451Z,53.30
2019-03-12T04:05:12.701Z,53.40
2019-03-12T04:08:07.985Z,53.40
2019-03-12T04:11:03.151Z,53.40
2019-03-12T04:13:58.994Z,53.40
2019-03-12T04:16:54.243Z,53.20
2019-03-12T04:19:48.873Z,53.20
2019-03-12T04:22:43.595Z,53.20
2019-03-12T04:25:38.815Z,53.40
2019-03-12T04:28:33.751Z,53.30
2019-03-12T04:31:28.681Z,53.30
2019-03-12T04:34:26.278Z,53.30
2019-03-12T04:37:22.092Z,53.00
2019-03-12T04:40:17.693Z,53.00
2019-03-12T04:43:13.129Z,53.10
2019-03-12T04:46:08.058Z,53.00
2019-03-12T04:49:03.032Z,53.10
2019-03-12T04:52:02.440Z,53.00
2019-03-12T04:55:03.713Z,53.00
2019-03-12T04:57:56.120Z,53.10
2019-03-12T05:01:18.431Z,53.00
2019-03-12T05:04:42.008Z,52.80
2019-03-12T05:07:51.164Z,52.40
2019-03-12T05:10:51.092Z,52.10
2019-03-12T05:14:21.703Z,51.60
2019-03-12T05:17:43.274Z,50.90
2019-03-12T05:20:58.747Z,50.70
2019-03-12T05:23:51.258Z,50.70
2019-03-12T05:26:53.094Z,50.40
2019-03-12T05:29:57.279Z,50.40
2019-03-12T05:32:57.594Z,50.00
2019-03-12T05:35:59.548Z,49.40
2019-03-12T05:38:59.568Z,48.70
2019-03-12T05:44:57.524Z,47.20
2019-03-12T05:47:52.739Z,45.90
2019-03-12T05:50:48.511Z,45.90
2019-03-12T05:53:59.138Z,45.80
2019-03-12T05:56:57.400Z,45.70
2019-03-12T05:59:54.671Z,45.40
2019-03-12T06:02:53.051Z,45.60
2019-03-12T06:05:51.525Z,45.60
2019-03-12T06:08:48.461Z,45.60
2019-03-12T06:12:06.818Z,45.60
2019-03-12T06:15:07.019Z,45.40
2019-03-12T06:18:13.462Z,44.90
2019-03-12T06:21:15.248Z,45.10
2019-03-12T06:24:30.887Z,44.70
2019-03-12T06:27:30.584Z,44.30
2019-03-12T06:30:26.718Z,44.10
2019-03-12T06:33:27.795Z,44.30
2019-03-12T06:36:41.220Z,43.50
2019-03-12T06:44:16.894Z,43.30
2019-03-12T06:47:46.364Z,42.80
2019-03-12T06:51:18.555Z,42.40
2019-03-12T06:54:34.753Z,42.60
2019-03-12T06:57:40.730Z,42.60
2019-03-12T07:00:53.864Z,42.70
2019-03-12T07:03:59.343Z,42.00
2019-03-12T07:07:18.850Z,42.20
2019-03-12T07:10:44.669Z,41.90
2019-03-12T07:14:05.546Z,42.10
2019-03-12T07:17:05.627Z,41.90
2019-03-12T07:20:38.298Z,41.50
2019-03-12T07:23:49.291Z,41.10
2019-03-12T07:27:04.181Z,40.50
2019-03-12T07:30:24.516Z,40.70
2019-03-12T07:33:43.694Z,40.90
2019-03-12T07:36:52.172Z,40.70
2019-03-12T07:40:11.780Z,40.80
2019-03-12T07:43:25.122Z,40.90
2019-03-12T07:46:42.935Z,40.90
2019-03-12T07:50:18.499Z,41.20
2019-03-12T07:53:58.630Z,41.30
2019-03-12T07:57:15.077Z,41.40
2019-03-12T08:00:33.794Z,41.50
2019-03-12T08:03:41.796Z,41.30
2019-03-12T08:06:56.113Z,41.40
2019-03-12T08:10:18.983Z,41.40
2019-03-12T08:13:28.725Z,41.40
2019-03-12T08:16:57.475Z,41.20
2019-03-12T08:23:28.722Z,41.00
2019-03-12T08:26:44.853Z,40.80
2019-03-12T08:30:04.602Z,40.80
2019-03-12T08:33:28.809Z,40.90
2019-03-12T08:36:50.695Z,41.00
2019-03-12T08:40:12.984Z,41.00
2019-03-12T08:43:31.862Z,41.00
2019-03-12T08:46:49.271Z,41.20
2019-03-12T08:50:09.658Z,41.40
2019-03-12T08:53:25.486Z,41.30
2019-03-12T08:56:34.625Z,41.60
2019-03-12T08:59:51.019Z,41.80
2019-03-12T09:03:16.673Z,41.50
2019-03-12T09:06:29.525Z,41.00
2019-03-12T09:09:31.685Z,40.50
2019-03-12T09:12:44.840Z,40.40
2019-03-12T09:15:54.965Z,40.50
2019-03-12T09:19:01.179Z,40.50
2019-03-12T09:22:25.643Z,40.70
2019-03-12T09:25:48.579Z,40.60
2019-03-12T09:29:09.747Z,40.60
2019-03-12T09:32:17.893Z,40.60
2019-03-12T09:35:32.824Z,40.80
2019-03-12T09:38:47.671Z,40.90
2019-03-12T09:42:00.168Z,41.00
2019-03-12T09:45:15.870Z,40.90
2019-03-12T09:48:19.600Z,40.80
2019-03-12T09:51:36.182Z,41.00
2019-03-12T09:54:50.442Z,41.60
2019-03-12T09:57:53.153Z,41.10
2019-03-12T10:01:09.521Z,40.40
2019-03-12T10:04:22.345Z,39.90
2019-03-12T10:07:43.133Z,39.90
2019-03-12T10:10:50.277Z,39.70
2019-03-12T10:14:12.452Z,39.70
2019-03-12T10:17:46.295Z,40.00
2019-03-12T10:20:53.055Z,40.10
2019-03-12T10:24:10.761Z,40.10
2019-03-12T10:27:27.289Z,40.30
2019-03-12T10:30:42.109Z,40.30
2019-03-12T10:33:54.425Z,40.40
2019-03-12T10:37:11.810Z,41.00
2019-03-12T10:40:25.438Z,42.40
2019-03-12T10:51:00.754Z,48.80
2019-03-12T10:53:57.034Z,49.50
2019-03-12T10:56:52.408Z,51.20
2019-03-12T11:00:08.120Z,52.90
2019-03-12T11:03:09.465Z,53.90
2019-03-12T11:06:09.321Z,55.60
2019-03-12T11:09:08.955Z,56.60
2019-03-12T11:12:08.030Z,57.40
2019-03-12T11:15:12.258Z,57.40
2019-03-12T11:18:10.887Z,56.80
2019-03-12T11:21:07.531Z,56.70
2019-03-12T11:24:03.287Z,56.80
2019-03-12T11:26:59.629Z,57.20
2019-03-12T11:29:55.345Z,57.40
2019-03-12T11:32:50.352Z,57.70
2019-03-12T11:35:45.907Z,58.30
2019-03-12T11:38:41.651Z,58.30
2019-03-12T11:41:40.342Z,58.00
2019-03-12T11:44:39.978Z,58.00
2019-03-12T11:47:35.365Z,57.70
2019-03-12T11:50:31.085Z,57.50
2019-03-12T11:53:26.816Z,57.70
2019-03-12T11:56:22.606Z,57.50
2019-03-12T11:59:24.256Z,57.20
2019-03-12T12:02:23.649Z,57.40
2019-03-12T12:05:21.082Z,57.10
2019-03-12T12:08:17.055Z,56.50
2019-03-12T12:11:14.963Z,56.20
2019-03-12T12:14:12.070Z,56.00
2019-03-12T12:17:07.960Z,56.20
2019-03-12T12:20:06.170Z,56.20
2019-03-12T12:23:12.749Z,55.90
2019-03-12T12:26:08.014Z,55.90
2019-03-12T12:29:03.973Z,55.80
2019-03-12T12:31:59.793Z,55.90
2019-03-12T12:34:55.377Z,55.70
2019-03-12T12:37:51.004Z,55.50
2019-03-12T12:40:46.281Z,55.40
2019-03-12T12:43:41.478Z,55.80
2019-03-12T12:46:36.776Z,55.30
2019-03-12T12:49:32.475Z,55.00
2019-03-12T12:52:28.369Z,54.40
2019-03-12T12:55:24.078Z,54.20
2019-03-12T12:58:19.824Z,54.00
2019-03-12T13:01:15.933Z,53.70
2019-03-12T13:04:11.360Z,53.40
2019-03-12T13:07:07.202Z,53.20
2019-03-12T13:10:02.491Z,53.10
2019-03-12T13:12:58.410Z,53.00
2019-03-12T13:15:53.658Z,52.70
2019-03-12T13:18:48.889Z,52.50
2019-03-12T13:21:44.133Z,52.60
2019-03-12T13:24:41.624Z,52.50
2019-03-12T13:27:42.102Z,52.50
2019-03-12T13:30:32.463Z,52.10
2019-03-12T13:33:27.971Z,52.00
2019-03-12T13:36:23.068Z,52.10
2019-03-12T13:39:18.678Z,52.10
2019-03-12T13:42:13.594Z,52.30
2019-03-12T13:45:09.289Z,52.40
2019-03-12T13:48:04.698Z,52.50
2019-03-12T13:50:59.950Z,52.60
2019-03-12T13:53:55.471Z,52.90
2019-03-12T13:56:50.990Z,52.90
2019-03-12T13:59:46.443Z,53.30
2019-03-12T14:02:44.874Z,52.70
2019-03-12T14:05:39.689Z,52.50
2019-03-12T14:08:34.902Z,52.60
2019-03-12T14:11:30.343Z,52.60
2019-03-12T14:14:25.570Z,52.60
2019-03-12T14:17:21.039Z,52.90
2019-03-12T14:20:46.049Z,53.10
2019-03-12T14:23:47.084Z,53.00
2019-03-12T14:26:42.595Z,52.90
2019-03-12T14:29:38.021Z,52.80
2019-03-12T14:32:34.483Z,53.00
2019-03-12T14:35:29.914Z,53.10
2019-03-12T14:38:25.529Z,53.10
2019-03-12T14:41:21.240Z,53.30
2019-03-12T14:44:17.722Z,53.30
2019-03-12T14:47:13.932Z,53.20
2019-03-12T14:50:10.082Z,53.20
2019-03-12T14:53:21.049Z,53.30
2019-03-12T14:56:05.358Z,53.60
2019-03-12T14:59:00.398Z,53.60
2019-03-12T15:01:56.490Z,53.50
2019-03-12T15:04:52.244Z,53.50
2019-03-12T15:07:48.321Z,53.50
2019-03-12T15:10:43.723Z,53.70
2019-03-12T15:13:39.411Z,53.60
2019-03-12T15:16:34.846Z,53.60
2019-03-12T15:19:30.333Z,53.80
2019-03-12T15:22:25.546Z,53.80
2019-03-12T15:25:20.968Z,53.80
2019-03-12T15:28:16.382Z,53.70
2019-03-12T15:31:12.110Z,53.70
2019-03-12T15:34:07.285Z,53.60
2019-03-12T15:37:02.614Z,53.80
2019-03-12T15:39:58.175Z,53.80
2019-03-12T15:42:53.888Z,53.80
2019-03-12T15:45:49.878Z,53.80
2019-03-12T15:48:45.095Z,53.90
2019-03-12T15:51:40.405Z,54.00
2019-03-12T15:54:35.936Z,54.00
2019-03-12T15:57:31.202Z,54.10
2019-03-12T16:00:26.332Z,54.30
2019-03-12T16:03:21.916Z,54.40
2019-03-12T16:06:17.963Z,54.20
2019-03-12T16:09:14.049Z,54.20
2019-03-12T16:12:09.868Z,54.20
2019-03-12T16:15:04.956Z,54.30
2019-03-12T16:18:00.495Z,54.60
2019-03-12T16:20:55.738Z,54.60
2019-03-12T16:23:52.733Z,54.40
2019-03-12T16:26:47.631Z,54.50
2019-03-12T16:29:43.327Z,54.50
2019-03-12T16:32:38.624Z,54.50
2019-03-12T16:35:33.542Z,54.50
2019-03-12T16:38:30.466Z,54.60
2019-03-12T16:41:25.827Z,54.60
2019-03-12T16:44:21.737Z,54.70
2019-03-12T16:47:16.458Z,55.00
2019-03-12T16:50:12.017Z,55.10
2019-03-12T16:53:07.021Z,55.20
2019-03-12T16:56:02.391Z,55.50
2019-03-12T16:58:57.521Z,55.30
2019-03-12T17:01:52.183Z,55.30
2019-03-12T17:04:47.323Z,55.50
2019-03-12T17:07:42.904Z,55.70
2019-03-12T17:10:38.002Z,55.60
2019-03-12T17:13:33.236Z,55.60
2019-03-12T17:16:28.544Z,55.50
2019-03-12T17:19:23.869Z,55.40
2019-03-12T17:22:19.172Z,55.40
2019-03-12T17:25:15.593Z,55.40
2019-03-12T17:28:10.817Z,55.30
2019-03-12T17:31:06.533Z,55.40
2019-03-12T17:34:01.523Z,55.40
2019-03-12T17:36:56.450Z,55.40
2019-03-12T17:39:51.498Z,55.50
2019-03-12T17:42:46.781Z,55.60
2019-03-12T17:45:42.766Z,55.60
2019-03-12T17:48:38.422Z,55.50
2019-03-12T17:51:34.387Z,55.50
2019-03-12T17:54:31.978Z,55.60
2019-03-12T17:57:25.621Z,55.50
2019-03-12T18:00:23.136Z,55.50
2019-03-12T18:03:18.594Z,55.60
2019-03-12T18:06:13.636Z,55.60
2019-03-12T18:09:09.898Z,55.70
2019-03-12T18:12:05.504Z,56.00
2019-03-12T18:15:00.807Z,55.70
2019-03-12T18:17:56.284Z,55.70
2019-03-12T18:20:51.369Z,55.90
2019-03-12T18:23:46.680Z,56.00
2019-03-12T18:26:42.627Z,56.00
2019-03-12T18:29:38.432Z,56.00
2019-03-12T18:32:33.520Z,56.20
2019-03-12T18:35:28.887Z,56.30
2019-03-12T18:38:24.297Z,56.40
2019-03-12T18:41:19.411Z,56.30
2019-03-12T18:44:14.728Z,56.40
2019-03-12T18:47:09.970Z,56.40
2019-03-12T18:50:05.622Z,56.50
2019-03-12T18:53:00.997Z,56.60
2019-03-12T18:56:06.287Z,56.60
2019-03-12T18:59:01.755Z,56.70
2019-03-12T19:01:57.207Z,56.50
2019-03-12T19:04:53.032Z,56.70
2019-03-12T19:07:48.550Z,56.80
2019-03-12T19:10:43.727Z,56.80
2019-03-12T19:13:39.038Z,56.70
2019-03-12T19:16:34.872Z,56.90
2019-03-12T19:19:30.481Z,57.00
2019-03-12T19:22:25.542Z,57.10
2019-03-12T19:25:20.597Z,57.20
2019-03-12T19:28:15.536Z,57.50
2019-03-12T19:31:32.197Z,57.50
2019-03-12T19:34:35.707Z,57.50
2019-03-12T19:37:30.892Z,57.60
2019-03-12T19:40:26.546Z,57.70
2019-03-12T19:43:21.343Z,57.80
2019-03-12T19:46:16.662Z,57.90
2019-03-12T19:49:12.054Z,58.20
2019-03-12T19:52:07.601Z,58.20
2019-03-12T19:55:02.664Z,58.50
2019-03-12T19:57:58.217Z,58.50
2019-03-12T20:00:53.392Z,58.80
2019-03-12T20:03:48.904Z,58.80
2019-03-12T20:06:44.120Z,59.10
2019-03-12T20:10:18.554Z,59.60
2019-03-12T20:13:50.906Z,59.40
2019-03-12T20:17:19.612Z,59.40
2019-03-12T20:20:58.344Z,59.40
2019-03-12T20:24:49.058Z,59.50
2019-03-12T20:28:17.472Z,59.60
2019-03-12T20:32:15.955Z,59.60
2019-03-12T20:35:59.335Z,59.90
2019-03-12T20:39:38.734Z,59.90
2019-03-12T20:43:08.691Z,60.20
2019-03-12T20:46:44.163Z,60.50
2019-03-12T20:50:29.924Z,60.60
2019-03-12T20:54:01.108Z,60.60
2019-03-12T20:57:29.436Z,60.30
2019-03-12T21:01:05.209Z,60.30
2019-03-12T21:04:23.687Z,60.20
2019-03-12T21:08:22.038Z,60.20
2019-03-12T21:12:04.069Z,60.30
2019-03-12T21:15:34.482Z,60.30
2019-03-12T21:18:54.384Z,60.30
2019-03-12T21:22:20.906Z,60.40
2019-03-12T21:25:52.482Z,60.50
2019-03-12T21:29:22.192Z,60.50
2019-03-12T21:32:18.126Z,60.50
2019-03-12T21:35:12.919Z,60.70
2019-03-12T21:38:07.987Z,60.70
2019-03-12T21:41:02.773Z,60.70
2019-03-12T21:43:57.605Z,60.80
2019-03-12T21:46:52.916Z,60.80
2019-03-12T21:49:48.035Z,60.90
2019-03-12T21:52:43.319Z,61.00
2019-03-12T21:55:38.577Z,61.20
2019-03-12T21:58:33.751Z,61.20
2019-03-12T22:01:28.838Z,61.30
2019-03-12T22:04:23.843Z,61.30
2019-03-12T22:07:19.368Z,61.20
2019-03-12T22:10:14.766Z,61.20
2019-03-12T22:13:09.710Z,61.30
2019-03-12T22:16:04.992Z,61.30
2019-03-12T22:19:00.335Z,61.40
2019-03-12T22:22:25.288Z,61.50
2019-03-12T22:25:20.289Z,61.60
2019-03-12T22:28:15.487Z,61.50
2019-03-12T22:31:10.965Z,61.50
2019-03-12T22:34:06.118Z,61.30
2019-03-12T22:37:01.340Z,61.20
2019-03-12T22:39:57.252Z,61.30
2019-03-12T22:42:52.396Z,61.40
2019-03-12T22:45:47.687Z,61.40
2019-03-12T22:48:42.992Z,61.50
2019-03-12T22:51:38.054Z,61.50
2019-03-12T22:54:32.934Z,61.50
2019-03-12T22:57:28.095Z,61.40
2019-03-12T23:00:41.975Z,61.60
2019-03-12T23:03:54.733Z,61.70
2019-03-12T23:07:08.819Z,61.80
2019-03-12T23:10:09.335Z,62.00
2019-03-12T23:13:05.464Z,62.20
2019-03-12T23:16:00.750Z,62.50
2019-03-12T23:18:56.376Z,62.60
2019-03-12T23:21:51.234Z,62.90
2019-03-12T23:24:46.522Z,63.10
2019-03-12T23:27:41.379Z,63.10
2019-03-12T23:30:36.408Z,63.10
2019-03-12T23:33:31.263Z,63.20
2019-03-12T23:36:26.533Z,63.40
2019-03-12T23:39:22.060Z,63.50
2019-03-12T23:42:17.008Z,63.50
2019-03-12T23:45:12.678Z,63.50
2019-03-12T23:48:07.294Z,63.50
2019-03-12T23:51:02.255Z,63.50
2019-03-12T23:53:57.460Z,63.50
2019-03-12T23:56:52.465Z,63.60
2019-03-12T23:59:47.318Z,63.60
